sensor_id;sensor_type;location;lat;lon;timestamp;P1;durP1;ratioP1;P2;durP2;ratioP2
54787;SDS011;59598;48.112;16.280;2023-04-03T00:00:05;2.72;;;2.00;;
54787;SDS011;59598;48.112;16.280;2023-04-03T00:02:42;4.78;;;2.42;;
54787;SDS011;59598;48.112;16.280;2023-04-03T00:05:13;3.22;;;2.20;;
54787;SDS011;59598;48.112;16.280;2023-04-03T00:07:45;2.40;;;1.83;;
54787;SDS011;59598;48.112;16.280;2023-04-03T00:10:22;4.30;;;2.10;;
54787;SDS011;59598;48.112;16.280;2023-04-03T00:13:01;2.72;;;1.92;;
54787;SDS011;59598;48.112;16.280;2023-04-03T00:15:39;3.25;;;2.13;;
54787;SDS011;59598;48.112;16.280;2023-04-03T00:18:15;3.38;;;2.50;;
54787;SDS011;59598;48.112;16.280;2023-04-03T00:20:47;2.50;;;2.08;;
54787;SDS011;59598;48.112;16.280;2023-04-03T00:23:22;2.38;;;1.92;;
54787;SDS011;59598;48.112;16.280;2023-04-03T00:25:58;2.33;;;2.03;;
54787;SDS011;59598;48.112;16.280;2023-04-03T00:28:34;2.30;;;2.10;;
54787;SDS011;59598;48.112;16.280;2023-04-03T00:31:05;2.80;;;2.08;;
54787;SDS011;59598;48.112;16.280;2023-04-03T00:33:40;2.42;;;2.20;;
54787;SDS011;59598;48.112;16.280;2023-04-03T00:36:12;2.60;;;2.22;;
54787;SDS011;59598;48.112;16.280;2023-04-03T00:38:43;3.63;;;1.98;;
54787;SDS011;59598;48.112;16.280;2023-04-03T00:41:15;3.17;;;2.10;;
54787;SDS011;59598;48.112;16.280;2023-04-03T00:43:46;2.92;;;2.40;;
54787;SDS011;59598;48.112;16.280;2023-04-03T00:46:25;2.17;;;1.85;;
54787;SDS011;59598;48.112;16.280;2023-04-03T00:48:58;4.00;;;2.53;;
54787;SDS011;59598;48.112;16.280;2023-04-03T00:51:35;2.65;;;2.15;;
54787;SDS011;59598;48.112;16.280;2023-04-03T00:54:06;3.08;;;2.20;;
54787;SDS011;59598;48.112;16.280;2023-04-03T00:56:39;2.30;;;1.83;;
54787;SDS011;59598;48.112;16.280;2023-04-03T00:59:32;2.42;;;2.22;;
54787;SDS011;59598;48.112;16.280;2023-04-03T01:02:09;3.25;;;2.40;;
54787;SDS011;59598;48.112;16.280;2023-04-03T01:04:42;3.17;;;2.08;;
54787;SDS011;59598;48.112;16.280;2023-04-03T01:07:21;3.45;;;2.58;;
54787;SDS011;59598;48.112;16.280;2023-04-03T01:10:07;2.45;;;2.00;;
54787;SDS011;59598;48.112;16.280;2023-04-03T01:15:22;2.80;;;2.00;;
54787;SDS011;59598;48.112;16.280;2023-04-03T01:17:58;2.70;;;1.77;;
54787;SDS011;59598;48.112;16.280;2023-04-03T01:25:48;3.78;;;2.38;;
54787;SDS011;59598;48.112;16.280;2023-04-03T01:34:00;3.28;;;2.00;;
54787;SDS011;59598;48.112;16.280;2023-04-03T01:36:32;3.25;;;2.15;;
54787;SDS011;59598;48.112;16.280;2023-04-03T01:39:04;2.70;;;1.90;;
54787;SDS011;59598;48.112;16.280;2023-04-03T01:41:37;3.45;;;2.42;;
54787;SDS011;59598;48.112;16.280;2023-04-03T01:44:11;2.55;;;1.83;;
54787;SDS011;59598;48.112;16.280;2023-04-03T01:46:46;3.30;;;2.80;;
54787;SDS011;59598;48.112;16.280;2023-04-03T01:49:19;2.40;;;2.20;;
54787;SDS011;59598;48.112;16.280;2023-04-03T01:51:51;3.28;;;2.42;;
54787;SDS011;59598;48.112;16.280;2023-04-03T01:54:22;3.10;;;2.10;;
54787;SDS011;59598;48.112;16.280;2023-04-03T01:56:58;3.55;;;2.40;;
54787;SDS011;59598;48.112;16.280;2023-04-03T01:59:31;3.35;;;2.40;;
54787;SDS011;59598;48.112;16.280;2023-04-03T02:02:02;3.17;;;2.30;;
54787;SDS011;59598;48.112;16.280;2023-04-03T02:04:34;3.15;;;2.55;;
54787;SDS011;59598;48.112;16.280;2023-04-03T02:07:05;3.13;;;2.58;;
54787;SDS011;59598;48.112;16.280;2023-04-03T02:09:39;3.08;;;2.60;;
54787;SDS011;59598;48.112;16.280;2023-04-03T02:12:13;2.78;;;2.47;;
54787;SDS011;59598;48.112;16.280;2023-04-03T02:14:44;4.07;;;2.42;;
54787;SDS011;59598;48.112;16.280;2023-04-03T02:17:18;2.47;;;2.10;;
54787;SDS011;59598;48.112;16.280;2023-04-03T02:19:49;4.95;;;2.15;;
54787;SDS011;59598;48.112;16.280;2023-04-03T02:22:23;3.60;;;2.28;;
54787;SDS011;59598;48.112;16.280;2023-04-03T02:24:54;2.17;;;1.70;;
54787;SDS011;59598;48.112;16.280;2023-04-03T02:27:28;4.38;;;2.40;;
54787;SDS011;59598;48.112;16.280;2023-04-03T02:29:59;4.03;;;2.38;;
54787;SDS011;59598;48.112;16.280;2023-04-03T02:32:33;3.33;;;2.53;;
54787;SDS011;59598;48.112;16.280;2023-04-03T02:35:06;3.55;;;2.58;;
54787;SDS011;59598;48.112;16.280;2023-04-03T02:37:42;2.95;;;2.42;;
54787;SDS011;59598;48.112;16.280;2023-04-03T02:40:17;4.47;;;2.60;;
54787;SDS011;59598;48.112;16.280;2023-04-03T02:42:48;3.65;;;2.53;;
54787;SDS011;59598;48.112;16.280;2023-04-03T02:45:20;4.88;;;2.65;;
54787;SDS011;59598;48.112;16.280;2023-04-03T02:47:52;3.20;;;2.42;;
54787;SDS011;59598;48.112;16.280;2023-04-03T02:50:25;3.53;;;2.70;;
54787;SDS011;59598;48.112;16.280;2023-04-03T02:53:19;2.83;;;2.20;;
54787;SDS011;59598;48.112;16.280;2023-04-03T02:55:50;3.60;;;2.90;;
54787;SDS011;59598;48.112;16.280;2023-04-03T02:58:24;3.75;;;2.83;;
54787;SDS011;59598;48.112;16.280;2023-04-03T03:00:55;3.65;;;2.72;;
54787;SDS011;59598;48.112;16.280;2023-04-03T03:03:29;2.83;;;2.57;;
54787;SDS011;59598;48.112;16.280;2023-04-03T03:08:39;4.15;;;2.58;;
54787;SDS011;59598;48.112;16.280;2023-04-03T03:11:13;3.38;;;2.38;;
54787;SDS011;59598;48.112;16.280;2023-04-03T03:13:45;3.20;;;2.28;;
54787;SDS011;59598;48.112;16.280;2023-04-03T03:16:20;4.25;;;2.97;;
54787;SDS011;59598;48.112;16.280;2023-04-03T03:18:53;4.75;;;2.35;;
54787;SDS011;59598;48.112;16.280;2023-04-03T03:21:24;4.47;;;2.90;;
54787;SDS011;59598;48.112;16.280;2023-04-03T03:23:56;2.47;;;2.28;;
54787;SDS011;59598;48.112;16.280;2023-04-03T03:26:30;2.30;;;2.10;;
54787;SDS011;59598;48.112;16.280;2023-04-03T03:29:03;3.28;;;2.80;;
54787;SDS011;59598;48.112;16.280;2023-04-03T03:31:34;4.75;;;2.70;;
54787;SDS011;59598;48.112;16.280;2023-04-03T03:34:06;4.20;;;2.35;;
54787;SDS011;59598;48.112;16.280;2023-04-03T03:36:38;4.35;;;2.78;;
54787;SDS011;59598;48.112;16.280;2023-04-03T03:39:11;3.45;;;2.28;;
54787;SDS011;59598;48.112;16.280;2023-04-03T03:41:43;3.05;;;2.67;;
54787;SDS011;59598;48.112;16.280;2023-04-03T03:44:14;7.30;;;2.97;;
54787;SDS011;59598;48.112;16.280;2023-04-03T03:46:45;3.55;;;2.85;;
54787;SDS011;59598;48.112;16.280;2023-04-03T03:49:19;5.18;;;2.97;;
54787;SDS011;59598;48.112;16.280;2023-04-03T03:51:56;3.72;;;3.13;;
54787;SDS011;59598;48.112;16.280;2023-04-03T03:54:27;5.80;;;2.70;;
54787;SDS011;59598;48.112;16.280;2023-04-03T03:57:03;4.38;;;2.90;;
54787;SDS011;59598;48.112;16.280;2023-04-03T03:59:34;4.85;;;3.28;;
54787;SDS011;59598;48.112;16.280;2023-04-03T04:02:05;2.47;;;2.28;;
54787;SDS011;59598;48.112;16.280;2023-04-03T04:04:39;3.90;;;2.50;;
54787;SDS011;59598;48.112;16.280;2023-04-03T04:07:10;4.57;;;2.97;;
54787;SDS011;59598;48.112;16.280;2023-04-03T04:09:41;4.30;;;2.85;;
54787;SDS011;59598;48.112;16.280;2023-04-03T04:12:13;3.45;;;2.50;;
54787;SDS011;59598;48.112;16.280;2023-04-03T04:14:44;3.88;;;2.55;;
54787;SDS011;59598;48.112;16.280;2023-04-03T04:19:50;4.03;;;2.58;;
54787;SDS011;59598;48.112;16.280;2023-04-03T04:22:26;3.40;;;2.75;;
54787;SDS011;59598;48.112;16.280;2023-04-03T04:24:59;3.95;;;2.63;;
54787;SDS011;59598;48.112;16.280;2023-04-03T04:27:37;4.70;;;2.80;;
54787;SDS011;59598;48.112;16.280;2023-04-03T04:30:12;2.85;;;2.50;;
54787;SDS011;59598;48.112;16.280;2023-04-03T04:32:47;3.35;;;2.42;;
54787;SDS011;59598;48.112;16.280;2023-04-03T04:35:20;3.30;;;3.00;;
54787;SDS011;59598;48.112;16.280;2023-04-03T04:37:51;4.15;;;2.97;;
54787;SDS011;59598;48.112;16.280;2023-04-03T04:40:25;2.90;;;2.50;;
54787;SDS011;59598;48.112;16.280;2023-04-03T04:43:01;3.15;;;2.47;;
54787;SDS011;59598;48.112;16.280;2023-04-03T04:45:32;3.33;;;2.63;;
54787;SDS011;59598;48.112;16.280;2023-04-03T04:48:11;5.70;;;2.70;;
54787;SDS011;59598;48.112;16.280;2023-04-03T04:50:42;4.18;;;2.30;;
54787;SDS011;59598;48.112;16.280;2023-04-03T04:53:14;5.10;;;2.47;;
54787;SDS011;59598;48.112;16.280;2023-04-03T04:55:51;3.60;;;2.80;;
54787;SDS011;59598;48.112;16.280;2023-04-03T04:58:23;3.72;;;2.35;;
54787;SDS011;59598;48.112;16.280;2023-04-03T05:01:07;3.15;;;2.10;;
54787;SDS011;59598;48.112;16.280;2023-04-03T05:03:41;5.75;;;2.40;;
54787;SDS011;59598;48.112;16.280;2023-04-03T05:06:15;4.20;;;3.08;;
54787;SDS011;59598;48.112;16.280;2023-04-03T05:08:49;3.75;;;2.63;;
54787;SDS011;59598;48.112;16.280;2023-04-03T05:11:24;4.28;;;2.85;;
54787;SDS011;59598;48.112;16.280;2023-04-03T05:13:57;2.75;;;2.20;;
54787;SDS011;59598;48.112;16.280;2023-04-03T05:16:32;3.30;;;2.95;;
54787;SDS011;59598;48.112;16.280;2023-04-03T05:19:17;2.95;;;2.42;;
54787;SDS011;59598;48.112;16.280;2023-04-03T05:21:50;7.13;;;2.38;;
54787;SDS011;59598;48.112;16.280;2023-04-03T05:24:25;3.45;;;2.30;;
54787;SDS011;59598;48.112;16.280;2023-04-03T05:26:59;3.03;;;2.47;;
54787;SDS011;59598;48.112;16.280;2023-04-03T05:29:33;2.50;;;2.30;;
54787;SDS011;59598;48.112;16.280;2023-04-03T05:32:07;2.80;;;2.47;;
54787;SDS011;59598;48.112;16.280;2023-04-03T05:34:46;3.17;;;2.00;;
54787;SDS011;59598;48.112;16.280;2023-04-03T05:37:18;2.60;;;2.20;;
54787;SDS011;59598;48.112;16.280;2023-04-03T05:39:52;5.13;;;2.33;;
54787;SDS011;59598;48.112;16.280;2023-04-03T05:42:25;3.05;;;2.28;;
54787;SDS011;59598;48.112;16.280;2023-04-03T05:44:57;2.33;;;1.80;;
54787;SDS011;59598;48.112;16.280;2023-04-03T05:47:28;3.67;;;2.72;;
54787;SDS011;59598;48.112;16.280;2023-04-03T05:50:02;2.30;;;2.10;;
54787;SDS011;59598;48.112;16.280;2023-04-03T05:52:37;3.08;;;2.10;;
54787;SDS011;59598;48.112;16.280;2023-04-03T05:55:16;2.70;;;1.77;;
54787;SDS011;59598;48.112;16.280;2023-04-03T05:57:47;3.33;;;2.05;;
54787;SDS011;59598;48.112;16.280;2023-04-03T06:00:18;3.92;;;2.13;;
54787;SDS011;59598;48.112;16.280;2023-04-03T06:02:53;4.20;;;2.17;;
54787;SDS011;59598;48.112;16.280;2023-04-03T06:05:24;5.75;;;2.50;;
54787;SDS011;59598;48.112;16.280;2023-04-03T06:07:55;2.83;;;2.28;;
54787;SDS011;59598;48.112;16.280;2023-04-03T06:10:27;2.97;;;2.03;;
54787;SDS011;59598;48.112;16.280;2023-04-03T06:12:59;3.33;;;2.08;;
54787;SDS011;59598;48.112;16.280;2023-04-03T06:15:32;3.13;;;2.10;;
54787;SDS011;59598;48.112;16.280;2023-04-03T06:18:04;2.38;;;2.13;;
54787;SDS011;59598;48.112;16.280;2023-04-03T06:20:35;6.65;;;2.35;;
54787;SDS011;59598;48.112;16.280;2023-04-03T06:23:06;2.70;;;1.67;;
54787;SDS011;59598;48.112;16.280;2023-04-03T06:25:38;3.08;;;2.05;;
54787;SDS011;59598;48.112;16.280;2023-04-03T06:28:12;2.72;;;2.28;;
54787;SDS011;59598;48.112;16.280;2023-04-03T06:30:43;3.40;;;1.83;;
54787;SDS011;59598;48.112;16.280;2023-04-03T06:33:17;3.42;;;2.33;;
54787;SDS011;59598;48.112;16.280;2023-04-03T06:35:48;3.25;;;2.38;;
54787;SDS011;59598;48.112;16.280;2023-04-03T06:38:20;3.05;;;1.98;;
54787;SDS011;59598;48.112;16.280;2023-04-03T06:40:51;3.85;;;2.30;;
54787;SDS011;59598;48.112;16.280;2023-04-03T06:43:22;2.78;;;1.85;;
54787;SDS011;59598;48.112;16.280;2023-04-03T06:45:55;2.83;;;2.22;;
54787;SDS011;59598;48.112;16.280;2023-04-03T06:48:26;4.65;;;2.28;;
54787;SDS011;59598;48.112;16.280;2023-04-03T06:51:00;4.15;;;2.55;;
54787;SDS011;59598;48.112;16.280;2023-04-03T06:53:32;3.70;;;2.20;;
54787;SDS011;59598;48.112;16.280;2023-04-03T06:56:04;4.22;;;2.13;;
54787;SDS011;59598;48.112;16.280;2023-04-03T06:58:39;3.22;;;2.38;;
54787;SDS011;59598;48.112;16.280;2023-04-03T07:01:15;4.57;;;2.70;;
54787;SDS011;59598;48.112;16.280;2023-04-03T07:03:50;2.85;;;2.10;;
54787;SDS011;59598;48.112;16.280;2023-04-03T07:06:24;4.10;;;2.63;;
54787;SDS011;59598;48.112;16.280;2023-04-03T07:08:57;3.17;;;2.20;;
54787;SDS011;59598;48.112;16.280;2023-04-03T07:11:28;3.90;;;2.40;;
54787;SDS011;59598;48.112;16.280;2023-04-03T07:14:03;5.18;;;3.05;;
54787;SDS011;59598;48.112;16.280;2023-04-03T07:16:34;3.78;;;2.10;;
54787;SDS011;59598;48.112;16.280;2023-04-03T07:19:06;2.53;;;2.22;;
54787;SDS011;59598;48.112;16.280;2023-04-03T07:21:38;2.97;;;2.20;;
54787;SDS011;59598;48.112;16.280;2023-04-03T07:24:12;3.35;;;2.25;;
54787;SDS011;59598;48.112;16.280;2023-04-03T07:26:49;3.60;;;2.20;;
54787;SDS011;59598;48.112;16.280;2023-04-03T07:29:23;2.38;;;1.98;;
54787;SDS011;59598;48.112;16.280;2023-04-03T07:31:57;2.67;;;1.88;;
54787;SDS011;59598;48.112;16.280;2023-04-03T07:34:28;3.42;;;2.20;;
54787;SDS011;59598;48.112;16.280;2023-04-03T07:37:01;4.80;;;2.28;;
54787;SDS011;59598;48.112;16.280;2023-04-03T07:39:35;3.10;;;2.08;;
54787;SDS011;59598;48.112;16.280;2023-04-03T07:42:06;3.28;;;2.10;;
54787;SDS011;59598;48.112;16.280;2023-04-03T07:44:38;4.10;;;2.33;;
54787;SDS011;59598;48.112;16.280;2023-04-03T07:47:09;3.80;;;2.47;;
54787;SDS011;59598;48.112;16.280;2023-04-03T07:49:40;2.60;;;2.28;;
54787;SDS011;59598;48.112;16.280;2023-04-03T07:52:11;4.50;;;2.38;;
54787;SDS011;59598;48.112;16.280;2023-04-03T07:54:45;4.60;;;2.13;;
54787;SDS011;59598;48.112;16.280;2023-04-03T07:57:17;2.70;;;2.15;;
54787;SDS011;59598;48.112;16.280;2023-04-03T07:59:48;3.47;;;2.40;;
54787;SDS011;59598;48.112;16.280;2023-04-03T08:02:23;3.33;;;2.35;;
54787;SDS011;59598;48.112;16.280;2023-04-03T08:04:57;2.55;;;2.00;;
54787;SDS011;59598;48.112;16.280;2023-04-03T08:07:32;3.25;;;2.33;;
54787;SDS011;59598;48.112;16.280;2023-04-03T08:10:03;4.00;;;2.33;;
54787;SDS011;59598;48.112;16.280;2023-04-03T08:12:38;3.08;;;2.25;;
54787;SDS011;59598;48.112;16.280;2023-04-03T08:15:09;2.22;;;2.00;;
54787;SDS011;59598;48.112;16.280;2023-04-03T08:17:41;4.72;;;2.83;;
54787;SDS011;59598;48.112;16.280;2023-04-03T08:20:14;4.03;;;2.08;;
54787;SDS011;59598;48.112;16.280;2023-04-03T08:22:48;3.75;;;2.03;;
54787;SDS011;59598;48.112;16.280;2023-04-03T08:25:21;3.30;;;1.90;;
54787;SDS011;59598;48.112;16.280;2023-04-03T08:27:52;2.35;;;2.15;;
54787;SDS011;59598;48.112;16.280;2023-04-03T08:30:27;2.30;;;2.05;;
54787;SDS011;59598;48.112;16.280;2023-04-03T08:33:00;2.90;;;2.10;;
54787;SDS011;59598;48.112;16.280;2023-04-03T08:35:37;4.10;;;2.35;;
54787;SDS011;59598;48.112;16.280;2023-04-03T08:38:11;3.20;;;2.05;;
54787;SDS011;59598;48.112;16.280;2023-04-03T08:40:45;4.40;;;2.10;;
54787;SDS011;59598;48.112;16.280;2023-04-03T08:43:52;2.38;;;1.80;;
54787;SDS011;59598;48.112;16.280;2023-04-03T08:46:22;4.15;;;2.08;;
54787;SDS011;59598;48.112;16.280;2023-04-03T08:48:58;3.13;;;1.92;;
54787;SDS011;59598;48.112;16.280;2023-04-03T08:51:33;2.75;;;1.77;;
54787;SDS011;59598;48.112;16.280;2023-04-03T08:54:06;1.75;;;1.50;;
54787;SDS011;59598;48.112;16.280;2023-04-03T08:56:45;2.15;;;1.55;;
54787;SDS011;59598;48.112;16.280;2023-04-03T08:59:18;3.67;;;2.00;;
54787;SDS011;59598;48.112;16.280;2023-04-03T09:01:56;3.88;;;1.75;;
54787;SDS011;59598;48.112;16.280;2023-04-03T09:04:30;2.08;;;1.67;;
54787;SDS011;59598;48.112;16.280;2023-04-03T09:07:08;2.38;;;1.90;;
54787;SDS011;59598;48.112;16.280;2023-04-03T09:09:49;2.22;;;1.60;;
54787;SDS011;59598;48.112;16.280;2023-04-03T09:12:25;3.45;;;1.67;;
54787;SDS011;59598;48.112;16.280;2023-04-03T09:15:17;2.60;;;1.90;;
54787;SDS011;59598;48.112;16.280;2023-04-03T09:26:25;2.05;;;1.40;;
54787;SDS011;59598;48.112;16.280;2023-04-03T09:29:02;2.42;;;1.80;;
54787;SDS011;59598;48.112;16.280;2023-04-03T09:31:41;3.88;;;2.20;;
54787;SDS011;59598;48.112;16.280;2023-04-03T09:34:24;2.45;;;1.80;;
54787;SDS011;59598;48.112;16.280;2023-04-03T09:37:02;2.17;;;1.80;;
54787;SDS011;59598;48.112;16.280;2023-04-03T09:39:50;2.47;;;2.28;;
54787;SDS011;59598;48.112;16.280;2023-04-03T09:42:26;4.95;;;2.35;;
54787;SDS011;59598;48.112;16.280;2023-04-03T09:45:01;3.17;;;2.00;;
54787;SDS011;59598;48.112;16.280;2023-04-03T09:47:35;2.78;;;1.67;;
54787;SDS011;59598;48.112;16.280;2023-04-03T09:52:49;1.65;;;1.55;;
54787;SDS011;59598;48.112;16.280;2023-04-03T09:55:26;3.85;;;1.50;;
54787;SDS011;59598;48.112;16.280;2023-04-03T09:58:03;1.80;;;1.67;;
54787;SDS011;59598;48.112;16.280;2023-04-03T10:00:38;2.95;;;1.60;;
54787;SDS011;59598;48.112;16.280;2023-04-03T10:03:24;2.28;;;1.90;;
54787;SDS011;59598;48.112;16.280;2023-04-03T10:06:02;2.65;;;1.55;;
54787;SDS011;59598;48.112;16.280;2023-04-03T10:08:34;3.45;;;1.63;;
54787;SDS011;59598;48.112;16.280;2023-04-03T10:16:45;1.52;;;1.38;;
54787;SDS011;59598;48.112;16.280;2023-04-03T10:22:43;1.67;;;1.50;;
54787;SDS011;59598;48.112;16.280;2023-04-03T10:25:35;2.15;;;1.65;;
54787;SDS011;59598;48.112;16.280;2023-04-03T10:30:53;1.75;;;1.45;;
54787;SDS011;59598;48.112;16.280;2023-04-03T10:34:05;2.72;;;1.70;;
54787;SDS011;59598;48.112;16.280;2023-04-03T10:36:53;1.73;;;1.48;;
54787;SDS011;59598;48.112;16.280;2023-04-03T10:42:35;2.50;;;1.80;;
54787;SDS011;59598;48.112;16.280;2023-04-03T10:53:32;5.43;;;2.42;;
54787;SDS011;59598;48.112;16.280;2023-04-03T10:56:25;2.53;;;2.10;;
54787;SDS011;59598;48.112;16.280;2023-04-03T11:05:03;3.38;;;2.30;;
54787;SDS011;59598;48.112;16.280;2023-04-03T11:07:54;2.40;;;2.20;;
54787;SDS011;59598;48.112;16.280;2023-04-03T11:15:58;3.63;;;1.67;;
54787;SDS011;59598;48.112;16.280;2023-04-03T11:18:49;2.08;;;1.67;;
54787;SDS011;59598;48.112;16.280;2023-04-03T11:21:37;2.55;;;1.70;;
54787;SDS011;59598;48.112;16.280;2023-04-03T11:24:32;2.67;;;1.95;;
54787;SDS011;59598;48.112;16.280;2023-04-03T11:27:11;2.35;;;1.73;;
54787;SDS011;59598;48.112;16.280;2023-04-03T11:29:52;2.72;;;1.90;;
54787;SDS011;59598;48.112;16.280;2023-04-03T11:32:32;2.92;;;1.90;;
54787;SDS011;59598;48.112;16.280;2023-04-03T11:35:32;3.90;;;2.10;;
54787;SDS011;59598;48.112;16.280;2023-04-03T11:38:05;2.08;;;1.83;;
54787;SDS011;59598;48.112;16.280;2023-04-03T11:40:37;2.25;;;2.05;;
54787;SDS011;59598;48.112;16.280;2023-04-03T11:43:24;3.75;;;1.80;;
54787;SDS011;59598;48.112;16.280;2023-04-03T11:46:03;2.53;;;1.52;;
54787;SDS011;59598;48.112;16.280;2023-04-03T11:48:44;3.92;;;1.58;;
54787;SDS011;59598;48.112;16.280;2023-04-03T11:53:53;1.73;;;1.55;;
54787;SDS011;59598;48.112;16.280;2023-04-03T12:01:43;2.05;;;1.48;;
54787;SDS011;59598;48.112;16.280;2023-04-03T12:04:17;5.95;;;1.73;;
54787;SDS011;59598;48.112;16.280;2023-04-03T12:12:41;2.25;;;1.42;;
54787;SDS011;59598;48.112;16.280;2023-04-03T12:15:12;2.47;;;1.60;;
54787;SDS011;59598;48.112;16.280;2023-04-03T12:24:28;3.90;;;1.75;;
54787;SDS011;59598;48.112;16.280;2023-04-03T12:27:05;2.97;;;1.98;;
54787;SDS011;59598;48.112;16.280;2023-04-03T12:30:41;3.35;;;1.80;;
54787;SDS011;59598;48.112;16.280;2023-04-03T12:33:26;3.83;;;1.77;;
54787;SDS011;59598;48.112;16.280;2023-04-03T12:35:55;2.85;;;1.85;;
54787;SDS011;59598;48.112;16.280;2023-04-03T12:41:25;3.22;;;1.65;;
54787;SDS011;59598;48.112;16.280;2023-04-03T12:46:58;2.13;;;1.77;;
54787;SDS011;59598;48.112;16.280;2023-04-03T12:55:16;2.25;;;1.83;;
54787;SDS011;59598;48.112;16.280;2023-04-03T12:57:51;4.07;;;1.92;;
54787;SDS011;59598;48.112;16.280;2023-04-03T13:00:33;4.68;;;2.20;;
54787;SDS011;59598;48.112;16.280;2023-04-03T13:03:06;3.25;;;1.98;;
54787;SDS011;59598;48.112;16.280;2023-04-03T13:05:50;7.68;;;2.05;;
54787;SDS011;59598;48.112;16.280;2023-04-03T13:08:24;1.88;;;1.60;;
54787;SDS011;59598;48.112;16.280;2023-04-03T13:11:11;3.70;;;2.15;;
54787;SDS011;59598;48.112;16.280;2023-04-03T13:16:53;4.43;;;2.20;;
54787;SDS011;59598;48.112;16.280;2023-04-03T13:19:37;2.20;;;1.70;;
54787;SDS011;59598;48.112;16.280;2023-04-03T13:25:09;2.83;;;1.80;;
54787;SDS011;59598;48.112;16.280;2023-04-03T13:27:53;2.55;;;1.50;;
54787;SDS011;59598;48.112;16.280;2023-04-03T13:30:29;4.43;;;1.70;;
54787;SDS011;59598;48.112;16.280;2023-04-03T13:33:04;2.30;;;1.58;;
54787;SDS011;59598;48.112;16.280;2023-04-03T13:35:54;1.90;;;1.77;;
54787;SDS011;59598;48.112;16.280;2023-04-03T13:38:35;2.65;;;1.92;;
54787;SDS011;59598;48.112;16.280;2023-04-03T13:46:55;2.00;;;1.80;;
54787;SDS011;59598;48.112;16.280;2023-04-03T13:52:43;2.78;;;2.00;;
54787;SDS011;59598;48.112;16.280;2023-04-03T13:57:58;1.95;;;1.77;;
54787;SDS011;59598;48.112;16.280;2023-04-03T14:03:19;2.65;;;1.60;;
54787;SDS011;59598;48.112;16.280;2023-04-03T14:06:14;1.67;;;1.58;;
54787;SDS011;59598;48.112;16.280;2023-04-03T14:08:47;3.83;;;1.52;;
54787;SDS011;59598;48.112;16.280;2023-04-03T14:11:24;1.52;;;1.42;;
54787;SDS011;59598;48.112;16.280;2023-04-03T14:14:03;4.10;;;2.10;;
54787;SDS011;59598;48.112;16.280;2023-04-03T14:16:44;2.53;;;2.20;;
54787;SDS011;59598;48.112;16.280;2023-04-03T14:19:25;5.13;;;1.75;;
54787;SDS011;59598;48.112;16.280;2023-04-03T14:22:10;2.63;;;1.77;;
54787;SDS011;59598;48.112;16.280;2023-04-03T14:24:46;2.08;;;1.73;;
54787;SDS011;59598;48.112;16.280;2023-04-03T14:27:20;5.32;;;1.80;;
54787;SDS011;59598;48.112;16.280;2023-04-03T14:29:54;2.28;;;1.58;;
54787;SDS011;59598;48.112;16.280;2023-04-03T14:32:28;4.75;;;1.52;;
54787;SDS011;59598;48.112;16.280;2023-04-03T14:35:00;1.50;;;1.40;;
54787;SDS011;59598;48.112;16.280;2023-04-03T14:37:31;1.80;;;1.60;;
54787;SDS011;59598;48.112;16.280;2023-04-03T14:42:38;6.60;;;2.13;;
54787;SDS011;59598;48.112;16.280;2023-04-03T14:45:10;6.28;;;2.20;;
54787;SDS011;59598;48.112;16.280;2023-04-03T14:47:45;10.63;;;1.73;;
54787;SDS011;59598;48.112;16.280;2023-04-03T14:50:20;6.28;;;1.60;;
54787;SDS011;59598;48.112;16.280;2023-04-03T14:52:55;2.17;;;1.90;;
54787;SDS011;59598;48.112;16.280;2023-04-03T14:55:29;5.40;;;2.15;;
54787;SDS011;59598;48.112;16.280;2023-04-03T14:58:01;3.35;;;2.17;;
54787;SDS011;59598;48.112;16.280;2023-04-03T15:00:32;3.15;;;1.90;;
54787;SDS011;59598;48.112;16.280;2023-04-03T15:03:03;3.63;;;1.70;;
54787;SDS011;59598;48.112;16.280;2023-04-03T15:05:37;2.42;;;1.92;;
54787;SDS011;59598;48.112;16.280;2023-04-03T15:08:13;2.00;;;1.50;;
54787;SDS011;59598;48.112;16.280;2023-04-03T15:10:48;2.75;;;1.98;;
54787;SDS011;59598;48.112;16.280;2023-04-03T15:13:20;4.38;;;1.60;;
54787;SDS011;59598;48.112;16.280;2023-04-03T15:15:51;3.35;;;1.80;;
54787;SDS011;59598;48.112;16.280;2023-04-03T15:18:24;3.97;;;1.73;;
54787;SDS011;59598;48.112;16.280;2023-04-03T15:20:58;2.67;;;1.67;;
54787;SDS011;59598;48.112;16.280;2023-04-03T15:23:29;2.17;;;1.75;;
54787;SDS011;59598;48.112;16.280;2023-04-03T15:26:03;1.85;;;1.60;;
54787;SDS011;59598;48.112;16.280;2023-04-03T15:31:08;1.90;;;1.73;;
54787;SDS011;59598;48.112;16.280;2023-04-03T15:33:39;2.92;;;1.98;;
54787;SDS011;59598;48.112;16.280;2023-04-03T15:36:14;4.78;;;1.60;;
54787;SDS011;59598;48.112;16.280;2023-04-03T15:38:48;3.80;;;1.88;;
54787;SDS011;59598;48.112;16.280;2023-04-03T15:41:19;2.65;;;1.80;;
54787;SDS011;59598;48.112;16.280;2023-04-03T15:43:55;3.78;;;1.95;;
54787;SDS011;59598;48.112;16.280;2023-04-03T15:46:27;3.38;;;2.05;;
54787;SDS011;59598;48.112;16.280;2023-04-03T15:49:03;2.47;;;1.50;;
54787;SDS011;59598;48.112;16.280;2023-04-03T15:51:37;1.40;;;1.30;;
54787;SDS011;59598;48.112;16.280;2023-04-03T15:54:08;1.58;;;1.48;;
54787;SDS011;59598;48.112;16.280;2023-04-03T15:56:39;1.63;;;1.52;;
54787;SDS011;59598;48.112;16.280;2023-04-03T15:59:13;2.95;;;1.75;;
54787;SDS011;59598;48.112;16.280;2023-04-03T16:01:46;2.55;;;1.88;;
54787;SDS011;59598;48.112;16.280;2023-04-03T16:04:19;1.80;;;1.33;;
54787;SDS011;59598;48.112;16.280;2023-04-03T16:06:53;2.42;;;1.60;;
54787;SDS011;59598;48.112;16.280;2023-04-03T16:09:27;7.03;;;1.52;;
54787;SDS011;59598;48.112;16.280;2023-04-03T16:11:58;2.33;;;1.73;;
54787;SDS011;59598;48.112;16.280;2023-04-03T16:14:31;4.45;;;1.85;;
54787;SDS011;59598;48.112;16.280;2023-04-03T16:17:04;3.58;;;1.45;;
54787;SDS011;59598;48.112;16.280;2023-04-03T16:19:41;1.67;;;1.30;;
54787;SDS011;59598;48.112;16.280;2023-04-03T16:22:12;2.35;;;1.60;;
54787;SDS011;59598;48.112;16.280;2023-04-03T16:24:46;2.47;;;2.00;;
54787;SDS011;59598;48.112;16.280;2023-04-03T16:27:17;2.80;;;1.52;;
54787;SDS011;59598;48.112;16.280;2023-04-03T16:29:48;2.42;;;1.48;;
54787;SDS011;59598;48.112;16.280;2023-04-03T16:32:22;2.20;;;1.40;;
54787;SDS011;59598;48.112;16.280;2023-04-03T16:34:57;1.38;;;1.20;;
54787;SDS011;59598;48.112;16.280;2023-04-03T16:37:28;1.65;;;1.20;;
54787;SDS011;59598;48.112;16.280;2023-04-03T16:40:03;3.63;;;1.70;;
54787;SDS011;59598;48.112;16.280;2023-04-03T16:42:40;3.08;;;1.85;;
54787;SDS011;59598;48.112;16.280;2023-04-03T16:47:48;1.67;;;1.50;;
54787;SDS011;59598;48.112;16.280;2023-04-03T16:50:20;2.00;;;1.67;;
54787;SDS011;59598;48.112;16.280;2023-04-03T16:52:56;2.70;;;1.60;;
54787;SDS011;59598;48.112;16.280;2023-04-03T16:55:33;2.33;;;1.75;;
54787;SDS011;59598;48.112;16.280;2023-04-03T16:58:06;2.13;;;1.90;;
54787;SDS011;59598;48.112;16.280;2023-04-03T17:00:40;2.72;;;1.42;;
54787;SDS011;59598;48.112;16.280;2023-04-03T17:03:14;3.03;;;1.20;;
54787;SDS011;59598;48.112;16.280;2023-04-03T17:05:48;1.50;;;1.40;;
54787;SDS011;59598;48.112;16.280;2023-04-03T17:08:24;3.28;;;1.60;;
54787;SDS011;59598;48.112;16.280;2023-04-03T17:11:00;3.15;;;1.50;;
54787;SDS011;59598;48.112;16.280;2023-04-03T17:13:36;6.75;;;1.60;;
54787;SDS011;59598;48.112;16.280;2023-04-03T17:16:11;3.35;;;1.48;;
54787;SDS011;59598;48.112;16.280;2023-04-03T17:18:47;3.15;;;1.42;;
54787;SDS011;59598;48.112;16.280;2023-04-03T17:21:18;5.45;;;2.17;;
54787;SDS011;59598;48.112;16.280;2023-04-03T17:23:51;2.67;;;1.88;;